Time;durP1;ratioP1;P1;durP2;ratioP2;P2;SDS_P1;SDS_P2;PMS_P1;PMS_P2;Temp;Humidity;BMP_temperature;BMP_pressure;BME280_temperature;BME280_humidity;BME280_pressure;Samples;Min_cycle;Max_cycle;Signal;HPM_P1;HPM_P2
2022/03/24 00:00:02;;;;;;;6.53;3.60;;;;;;;6.33;35.80;94639.41;4961941;28;20046;-75
2022/03/24 00:02:27;;;;;;;10.80;4.93;;;;;;;6.33;35.77;94625.41;4964727;28;20486;-75
2022/03/24 00:04:53;;;;;;;6.97;3.90;;;;;;;6.56;35.44;94638.03;4957442;28;20133;-76
2022/03/24 00:07:18;;;;;;;9.55;4.38;;;;;;;6.16;35.37;94559.66;4967822;28;20058;-75
2022/03/24 00:09:43;;;;;;;6.50;3.75;;;;;;;6.58;35.66;94632.50;4967419;28;20560;-73
2022/03/24 00:12:10;;;;;;;9.40;4.18;;;;;;;6.71;35.78;94629.28;4964437;28;20041;-72
2022/03/24 00:14:35;;;;;;;6.70;3.53;;;;;;;6.34;36.04;94582.06;4971550;28;20469;-75
2022/03/24 00:17:01;;;;;;;8.32;4.10;;;;;;;6.29;36.68;94601.38;4981423;28;20117;-73
2022/03/24 00:19:26;;;;;;;9.05;3.92;;;;;;;6.80;35.91;94622.38;4973825;28;20040;-73
2022/03/24 00:21:52;;;;;;;12.30;4.95;;;;;;;6.62;36.31;94607.91;4957828;28;20030;-72
2022/03/24 00:24:19;;;;;;;8.40;4.10;;;;;;;6.69;36.28;94613.72;4970864;28;20037;-73
2022/03/24 00:26:45;;;;;;;6.63;4.47;;;;;;;6.66;36.15;94606.31;4962673;28;20045;-74
2022/03/24 00:29:10;;;;;;;10.07;4.38;;;;;;;6.57;36.40;94601.84;4967587;28;20038;-72
2022/03/24 00:31:36;;;;;;;9.70;4.50;;;;;;;6.61;36.54;94616.88;4968440;28;20022;-72
2022/03/24 00:34:13;;;;;;;11.30;4.25;;;;;;;6.38;36.55;94557.50;4964040;28;21424;-73
2022/03/24 00:36:39;;;;;;;9.95;4.45;;;;;;;6.88;35.79;94605.19;4966209;28;20125;-73
2022/03/24 00:39:06;;;;;;;9.57;4.93;;;;;;;6.53;36.29;94580.44;4965309;28;20045;-75
2022/03/24 00:41:32;;;;;;;9.52;5.13;;;;;;;6.59;36.45;94603.16;4959213;28;20416;-72
2022/03/24 00:43:57;;;;;;;10.82;5.60;;;;;;;6.41;36.63;94587.84;4971968;28;20038;-72
2022/03/24 00:46:23;;;;;;;12.40;6.10;;;;;;;6.43;36.44;94597.13;4966608;28;20552;-72
2022/03/24 00:48:53;;;;;;;10.60;6.10;;;;;;;5.19;36.37;94391.88;4964778;28;20034;-72
2022/03/24 00:51:19;;;;;;;11.88;6.32;;;;;;;6.27;36.31;94571.78;4968035;28;20030;-74
2022/03/24 00:53:48;;;;;;;15.43;6.60;;;;;;;6.33;36.70;94591.84;4965313;28;20042;-73
2022/03/24 00:56:13;;;;;;;16.63;5.88;;;;;;;6.29;36.72;94579.44;4976458;28;20100;-75
2022/03/24 00:58:40;;;;;;;9.30;6.03;;;;;;;6.11;36.92;94546.44;4964988;28;20041;-72
2022/03/24 01:01:09;;;;;;;9.60;4.63;;;;;;;6.26;36.79;94556.97;4971390;28;20367;-73
2022/03/24 01:03:36;;;;;;;13.00;4.75;;;;;;;6.25;37.29;94575.75;4981032;28;20185;-75
2022/03/24 01:06:02;;;;;;;8.65;4.40;;;;;;;5.98;37.56;94542.47;4965694;28;20569;-73
2022/03/24 01:08:27;;;;;;;8.00;4.47;;;;;;;6.31;37.21;94574.69;4966171;28;20059;-71
2022/03/24 01:10:55;;;;;;;6.88;4.07;;;;;;;5.96;37.17;94523.50;4964346;28;20382;-72
2022/03/24 01:13:21;;;;;;;8.40;4.78;;;;;;;6.00;37.19;94545.66;4968597;28;20058;-74
2022/03/24 01:15:47;;;;;;;8.85;4.68;;;;;;;6.32;37.12;94577.06;4962870;28;20519;-72
2022/03/24 01:18:14;;;;;;;9.38;5.25;;;;;;;6.13;36.75;94544.31;4972176;28;20035;-73
2022/03/24 01:20:40;;;;;;;9.95;5.20;;;;;;;6.21;36.61;94578.16;4981697;28;20121;-74
2022/03/24 01:23:05;;;;;;;16.38;8.77;;;;;;;6.08;36.66;94573.38;4967706;28;20113;-72
2022/03/24 01:25:33;;;;;;;11.95;6.82;;;;;;;5.93;36.74;94555.69;4967501;28;20204;-75
2022/03/24 01:27:58;;;;;;;14.15;8.40;;;;;;;5.81;37.04;94578.94;4971716;28;20077;-75
2022/03/24 01:30:24;;;;;;;20.13;10.02;;;;;;;4.57;36.95;94382.38;4965311;28;20042;-74
2022/03/24 01:32:49;;;;;;;13.60;9.20;;;;;;;5.78;37.28;94573.38;4958705;28;20489;-73
2022/03/24 01:35:15;;;;;;;21.65;9.52;;;;;;;5.78;37.21;94565.47;4965453;28;20069;-73
2022/03/24 01:37:41;;;;;;;19.45;9.00;;;;;;;5.65;37.47;94573.91;4966623;28;20057;-72
2022/03/24 01:40:09;;;;;;;17.63;10.27;;;;;;;5.73;36.96;94554.91;4964190;28;20023;-74
2022/03/24 01:42:36;;;;;;;21.85;9.57;;;;;;;5.70;37.46;94560.72;4967044;28;20038;-74
2022/03/24 01:45:02;;;;;;;20.13;9.93;;;;;;;5.55;37.17;94527.19;4975689;28;20042;-75
2022/03/24 01:47:28;;;;;;;19.05;9.20;;;;;;;5.43;37.57;94524.03;4970933;28;20063;-75
2022/03/24 01:49:58;;;;;;;11.00;7.65;;;;;;;5.56;37.65;94561.25;4959696;28;20608;-75
2022/03/24 01:52:25;;;;;;;15.00;7.82;;;;;;;5.54;37.87;94552.00;4970126;28;20026;-75
2022/03/24 01:54:56;;;;;;;20.10;9.25;;;;;;;5.56;37.70;94547.25;4964355;28;20034;-72
2022/03/24 01:57:23;;;;;;;18.25;8.57;;;;;;;5.61;37.57;94541.97;4965975;28;20065;-73
2022/03/24 01:59:49;;;;;;;11.98;8.20;;;;;;;5.64;37.38;94544.09;4956705;28;20658;-72
2022/03/24 02:02:15;;;;;;;10.55;6.82;;;;;;;5.36;37.57;94497.13;4962256;28;20074;-74
2022/03/24 02:04:43;;;;;;;12.15;6.55;;;;;;;5.50;37.93;94541.19;4959768;28;20034;-75
2022/03/24 02:07:10;;;;;;;11.50;6.57;;;;;;;5.12;37.83;94471.28;4965509;28;20022;-74
2022/03/24 02:09:36;;;;;;;10.50;6.97;;;;;;;5.59;37.53;94549.34;4966618;28;20048;-74
2022/03/24 02:12:06;;;;;;;15.48;6.72;;;;;;;5.63;37.45;94560.19;4970224;28;20027;-75
2022/03/24 02:14:31;;;;;;;15.98;7.53;;;;;;;5.25;37.89;94521.91;4965636;28;20057;-72
2022/03/24 02:16:57;;;;;;;21.13;8.27;;;;;;;5.24;38.03;94521.09;4962800;28;20034;-75
2022/03/24 02:19:24;;;;;;;13.48;7.03;;;;;;;5.19;38.24;94525.59;4971253;28;20088;-75
2022/03/24 02:21:52;;;;;;;17.90;8.20;;;;;;;5.37;37.97;94541.72;4976840;28;20037;-72
2022/03/24 02:24:20;;;;;;;23.35;7.82;;;;;;;5.09;38.36;94508.69;4966174;28;20035;-72
2022/03/24 02:26:48;;;;;;;9.60;6.30;;;;;;;5.26;38.30;94548.03;4960494;28;20042;-72
2022/03/24 02:29:16;;;;;;;10.25;6.18;;;;;;;5.26;38.60;94536.66;4978823;28;20114;-72
2022/03/24 02:31:46;;;;;;;14.93;7.55;;;;;;;5.45;38.06;94543.03;4969663;28;20108;-75
2022/03/24 02:36:58;;;;;;;19.40;8.70;;;;;;;5.11;38.40;94543.50;4964972;28;20494;-72
2022/03/24 02:39:24;;;;;;;24.65;10.38;;;;;;;5.03;38.41;94536.13;4964317;28;20444;-75
2022/03/24 02:41:53;;;;;;;19.27;10.02;;;;;;;4.73;38.17;94493.06;4966823;28;20050;-74
2022/03/24 02:44:19;;;;;;;13.57;8.20;;;;;;;4.97;38.66;94542.41;4961327;28;20034;-75
2022/03/24 02:46:47;;;;;;;20.05;9.18;;;;;;;4.74;38.99;94519.16;4960126;28;20045;-75
2022/03/24 02:49:13;;;;;;;20.40;9.05;;;;;;;4.75;38.75;94496.25;4965711;28;20026;-74
2022/03/24 02:51:39;;;;;;;13.77;7.53;;;;;;;4.87;39.08;94523.94;4966070;28;20163;-75
2022/03/24 02:54:04;;;;;;;15.57;7.90;;;;;;;4.70;39.54;94510.16;4970929;28;20963;-75
2022/03/24 02:56:30;;;;;;;15.48;8.35;;;;;;;4.81;39.58;94535.50;4960510;28;20358;-75
2022/03/24 02:58:57;;;;;;;18.33;8.63;;;;;;;4.90;39.22;94531.31;4965931;28;20086;-75
2022/03/24 03:01:25;;;;;;;20.88;8.57;;;;;;;4.78;39.56;94538.69;4955273;28;20085;-75
2022/03/24 03:03:52;;;;;;;21.10;9.40;;;;;;;4.76;39.51;94538.13;4966893;28;20038;-75
2022/03/24 03:06:18;;;;;;;17.15;9.48;;;;;;;4.46;39.47;94488.75;4965979;28;20038;-75
2022/03/24 03:08:44;;;;;;;26.15;9.38;;;;;;;4.71;39.59;94527.56;4962200;28;20054;-75
2022/03/24 03:11:10;;;;;;;25.55;10.52;;;;;;;4.46;39.47;94483.50;4983121;28;20424;-74
2022/03/24 03:13:35;;;;;;;19.50;11.05;;;;;;;4.80;39.33;94519.94;4958865;28;20092;-75
2022/03/24 03:16:00;;;;;;;19.60;10.93;;;;;;;4.83;39.39;94535.25;4967591;28;20026;-75
2022/03/24 03:18:26;;;;;;;26.02;11.27;;;;;;;4.58;39.15;94485.91;4963163;28;20133;-74
2022/03/24 03:20:51;;;;;;;22.00;11.82;;;;;;;4.72;39.26;94526.53;4958044;28;20050;-74
2022/03/24 03:23:17;;;;;;;18.85;10.85;;;;;;;4.63;39.24;94536.78;4957788;28;20520;-75
2022/03/24 03:25:43;;;;;;;27.20;13.55;;;;;;;4.64;39.04;94529.69;4983799;28;20030;-75
2022/03/24 03:28:09;;;;;;;26.00;12.63;;;;;;;4.58;39.36;94535.97;4961882;28;20022;-75
2022/03/24 03:30:34;;;;;;;19.40;10.88;;;;;;;4.14;39.17;94469.66;4969462;28;20038;-75
2022/03/24 03:32:59;;;;;;;27.80;12.23;;;;;;;4.49;39.29;94546.22;4961418;28;20038;-75
2022/03/24 03:35:26;;;;;;;24.95;12.02;;;;;;;4.31;39.17;94507.13;4968497;28;20471;-75
2022/03/24 03:37:51;;;;;;;26.15;11.88;;;;;;;4.55;39.27;94544.41;4962322;28;20054;-74
2022/03/24 03:40:17;;;;;;;22.02;11.30;;;;;;;4.51;39.22;94538.03;4965608;28;20022;-72
2022/03/24 03:42:43;;;;;;;20.08;10.52;;;;;;;4.54;39.40;94535.69;4960617;28;20039;-75
2022/03/24 03:45:10;;;;;;;25.58;11.50;;;;;;;4.34;39.40;94516.38;4970144;28;20042;-73
2022/03/24 03:47:35;;;;;;;20.92;10.85;;;;;;;4.40;39.43;94510.88;4969102;28;20137;-74
2022/03/24 03:50:00;;;;;;;23.38;9.77;;;;;;;4.53;39.31;94523.56;4975811;28;20034;-74
2022/03/24 03:52:26;;;;;;;26.02;10.45;;;;;;;4.51;38.83;94512.50;4966206;28;20027;-72
2022/03/24 03:54:52;;;;;;;24.63;10.45;;;;;;;4.39;39.36;94508.50;4966614;28;20129;-73
2022/03/24 03:57:17;;;;;;;21.20;10.75;;;;;;;4.26;39.69;94521.03;4967612;28;20053;-73
2022/03/24 03:59:42;;;;;;;22.48;11.57;;;;;;;4.37;39.38;94532.44;4961871;28;20360;-72
2022/03/24 04:02:08;;;;;;;20.55;10.80;;;;;;;4.43;39.46;94541.16;4967026;28;20038;-72
2022/03/24 04:04:33;;;;;;;19.95;11.30;;;;;;;4.32;39.72;94535.06;4964030;28;20065;-72
2022/03/24 04:06:59;;;;;;;31.60;12.50;;;;;;;4.29;39.63;94535.53;4964450;28;20479;-73
2022/03/24 04:09:24;;;;;;;24.30;13.25;;;;;;;4.40;39.47;94536.44;4967728;28;20141;-73
2022/03/24 04:11:49;;;;;;;30.73;14.85;;;;;;;4.34;39.47;94537.44;4961777;28;20516;-74
2022/03/24 04:14:15;;;;;;;28.15;15.02;;;;;;;4.04;39.80;94503.81;4994571;28;20038;-74
2022/03/24 04:16:41;;;;;;;31.42;15.38;;;;;;;4.12;39.75;94512.00;4968585;28;20153;-75
2022/03/24 04:19:07;;;;;;;35.28;15.25;;;;;;;4.22;39.69;94527.88;4970438;28;20040;-73
2022/03/24 04:21:32;;;;;;;36.35;17.85;;;;;;;4.06;39.39;94497.22;4966103;28;20035;-72
2022/03/24 04:23:58;;;;;;;30.38;15.45;;;;;;;4.25;39.84;94532.63;4964603;28;20054;-73
2022/03/24 04:26:23;;;;;;;39.00;18.20;;;;;;;4.00;39.99;94506.19;4970848;28;20039;-73
2022/03/24 04:28:48;;;;;;;33.55;16.95;;;;;;;4.10;39.95;94516.75;4968554;28;20049;-72
2022/03/24 04:31:14;;;;;;;39.60;16.80;;;;;;;4.30;39.67;94525.84;4964795;28;21091;-72
2022/03/24 04:33:39;;;;;;;32.45;16.63;;;;;;;4.40;39.61;94533.78;4967611;28;20432;-73
2022/03/24 04:36:08;;;;;;;36.08;16.52;;;;;;;4.17;39.57;94506.78;4962463;28;20109;-73
2022/03/24 04:38:35;;;;;;;31.10;15.88;;;;;;;4.20;40.00;94532.63;4967607;28;20817;-72
2022/03/24 04:41:00;;;;;;;37.70;17.17;;;;;;;4.03;39.87;94507.50;4972844;28;20047;-73
2022/03/24 04:43:26;;;;;;;32.10;14.60;;;;;;;4.18;39.68;94524.16;4961434;28;20039;-73
2022/03/24 04:45:52;;;;;;;32.67;14.82;;;;;;;4.22;39.71;94522.59;4967659;28;20137;-73
2022/03/24 04:48:18;;;;;;;29.27;14.23;;;;;;;4.13;39.81;94510.19;4966539;28;20125;-73
2022/03/24 04:50:43;;;;;;;35.45;15.57;;;;;;;4.21;39.76;94518.38;4968181;28;20058;-75
2022/03/24 04:53:14;;;;;;;35.88;16.23;;;;;;;4.37;39.67;94540.34;4966557;28;20480;-75
2022/03/24 04:55:40;;;;;;;29.85;15.93;;;;;;;4.46;39.69;94545.91;4972286;28;20034;-75
2022/03/24 04:58:06;;;;;;;29.92;16.05;;;;;;;4.53;39.81;94551.75;4962879;28;20439;-75
2022/03/24 05:00:32;;;;;;;36.70;17.52;;;;;;;4.57;39.66;94556.25;4977347;28;20430;-74
2022/03/24 05:02:59;;;;;;;36.05;17.85;;;;;;;4.51;40.11;94556.47;4967392;28;20043;-75
2022/03/24 05:05:25;;;;;;;35.42;18.08;;;;;;;4.68;40.01;94543.91;4980494;28;20042;-74
2022/03/24 05:07:50;;;;;;;41.13;17.92;;;;;;;4.60;39.66;94518.84;4970388;28;20051;-73
2022/03/24 05:10:16;;;;;;;38.80;17.70;;;;;;;4.51;39.76;94511.69;4963194;28;20031;-74
2022/03/24 05:12:42;;;;;;;36.33;17.23;;;;;;;4.70;40.03;94541.78;4971436;28;20468;-73
2022/03/24 05:15:09;;;;;;;41.88;16.77;;;;;;;4.70;40.00;94536.53;4961885;28;20408;-75
2022/03/24 05:17:34;;;;;;;29.02;15.57;;;;;;;5.00;39.39;94533.97;4965509;28;20034;-74
2022/03/24 05:19:59;;;;;;;44.50;17.30;;;;;;;4.97;39.87;94536.34;4968137;28;20043;-73
2022/03/24 05:22:25;;;;;;;44.63;17.52;;;;;;;4.78;39.89;94522.88;4981885;28;20178;-74
2022/03/24 05:24:50;;;;;;;40.55;17.83;;;;;;;4.23;40.13;94445.19;4965898;28;20521;-72
2022/03/24 05:27:16;;;;;;;39.88;16.75;;;;;;;4.60;39.96;94515.44;4965138;28;20042;-73
2022/03/24 05:29:42;;;;;;;38.03;17.10;;;;;;;4.40;41.05;94546.97;4975122;28;20611;-75
2022/03/24 05:32:08;;;;;;;41.85;18.58;;;;;;;4.27;40.82;94527.91;4969105;28;20069;-74
2022/03/24 05:34:34;;;;;;;36.20;16.25;;;;;;;4.53;40.58;94514.88;4973028;28;20037;-72
2022/03/24 05:36:59;;;;;;;46.80;20.45;;;;;;;3.80;41.39;94546.31;4960692;28;20026;-74
2022/03/24 05:39:25;;;;;;;34.92;17.73;;;;;;;4.32;40.84;94529.00;4969041;28;20055;-73
2022/03/24 05:41:50;;;;;;;40.72;14.68;;;;;;;4.22;40.92;94519.97;4963434;28;20413;-73
2022/03/24 05:44:15;;;;;;;34.33;17.27;;;;;;;4.43;40.94;94533.25;4967809;28;20125;-74
2022/03/24 05:46:44;;;;;;;25.88;14.57;;;;;;;4.43;40.56;94496.41;4960446;28;20485;-75
2022/03/24 05:49:14;;;;;;;22.27;12.65;;;;;;;4.81;39.03;94532.88;4965713;28;20029;-72
2022/03/24 05:51:42;;;;;;;33.97;17.17;;;;;;;4.79;40.96;94542.91;4966618;28;20034;-75
2022/03/24 05:54:09;;;;;;;34.60;18.30;;;;;;;4.76;41.06;94527.59;4967698;28;20035;-73
2022/03/24 05:56:35;;;;;;;39.75;19.10;;;;;;;4.76;41.22;94509.16;4959686;28;20043;-74
2022/03/24 05:59:00;;;;;;;56.92;24.45;;;;;;;4.49;41.71;94525.13;4966871;28;20092;-72
2022/03/24 06:01:25;;;;;;;44.15;20.30;;;;;;;4.30;43.13;94534.53;4958026;28;20039;-74
2022/03/24 06:03:52;;;;;;;41.17;19.55;;;;;;;4.67;42.47;94537.84;4960124;28;20025;-76
2022/03/24 06:06:18;;;;;;;37.15;18.50;;;;;;;4.69;42.31;94534.97;4967886;28;20045;-75
2022/03/24 06:08:44;;;;;;;45.67;19.15;;;;;;;4.64;42.42;94542.84;4964256;28;20504;-74
2022/03/24 06:11:12;;;;;;;43.80;19.55;;;;;;;5.00;41.45;94504.97;4965454;28;20064;-75
2022/03/24 06:13:41;;;;;;;234.60;60.53;;;;;;;5.29;41.26;94512.41;4968531;28;20543;-75
2022/03/24 06:16:09;;;;;;;44.33;23.13;;;;;;;5.91;40.37;94536.69;4968659;28;20023;-74
2022/03/24 06:18:39;;;;;;;48.45;20.40;;;;;;;5.91;39.70;94535.91;4961443;28;20500;-75
2022/03/24 06:21:05;;;;;;;37.50;20.95;;;;;;;5.87;39.80;94546.19;4965821;28;20039;-75
2022/03/24 06:23:31;;;;;;;36.33;20.75;;;;;;;6.14;39.45;94529.25;4970751;28;20042;-75
2022/03/24 06:25:56;;;;;;;38.78;19.13;;;;;;;6.18;39.11;94535.59;4967253;28;20043;-75
2022/03/24 06:28:21;;;;;;;43.83;22.13;;;;;;;6.06;39.47;94519.25;4965363;28;20489;-71
2022/03/24 06:30:48;;;;;;;45.92;19.67;;;;;;;6.14;39.37;94534.53;4965601;28;20035;-75
2022/03/24 06:33:16;;;;;;;46.78;20.77;;;;;;;5.97;39.75;94506.56;4968517;28;20576;-76
2022/03/24 06:35:43;;;;;;;41.65;20.52;;;;;;;6.33;39.09;94522.38;4968212;28;20455;-75
2022/03/24 06:38:09;;;;;;;70.47;27.88;;;;;;;6.74;38.08;94505.31;4968098;28;20035;-76
2022/03/24 06:40:38;;;;;;;44.42;22.48;;;;;;;6.75;38.01;94512.16;4960812;28;20049;-76
2022/03/24 06:43:05;;;;;;;37.22;18.38;;;;;;;6.84;37.74;94518.47;4970422;28;20644;-74
2022/03/24 06:45:32;;;;;;;60.03;24.75;;;;;;;6.75;37.92;94525.38;4968604;28;20468;-72
2022/03/24 06:47:57;;;;;;;39.08;20.58;;;;;;;7.02;37.12;94532.13;4964102;28;20050;-73
2022/03/24 06:50:23;;;;;;;52.85;22.65;;;;;;;7.06;37.38;94530.50;4964912;28;20046;-73
2022/03/24 06:52:48;;;;;;;38.08;18.25;;;;;;;7.11;37.22;94502.19;4966121;28;20051;-73
2022/03/24 06:55:18;;;;;;;46.63;20.60;;;;;;;7.33;36.48;94536.19;4970101;28;20023;-76
2022/03/24 06:57:44;;;;;;;40.50;20.23;;;;;;;7.70;36.26;94525.84;4978306;28;20100;-74
2022/03/24 07:00:14;;;;;;;53.78;21.30;;;;;;;7.64;36.13;94532.25;4968038;28;20211;-75
2022/03/24 07:02:45;;;;;;;34.25;18.15;;;;;;;7.93;36.04;94519.03;4996456;28;20391;-74
2022/03/24 07:05:11;;;;;;;33.58;16.08;;;;;;;7.91;35.31;94523.06;4961981;28;20521;-75
2022/03/24 07:07:38;;;;;;;50.72;20.92;;;;;;;8.28;34.89;94523.22;4966496;28;20509;-73
2022/03/24 07:10:04;;;;;;;42.80;18.67;;;;;;;7.64;35.52;94511.06;4958441;28;20405;-75
2022/03/24 07:12:30;;;;;;;35.47;16.92;;;;;;;8.08;34.63;94520.75;4958995;28;20173;-76
2022/03/24 07:14:56;;;;;;;33.15;17.02;;;;;;;8.09;34.83;94522.34;4963187;28;20047;-75
2022/03/24 07:17:21;;;;;;;32.85;18.25;;;;;;;8.46;34.05;94522.47;4957912;28;20046;-75
2022/03/24 07:19:47;;;;;;;32.95;17.08;;;;;;;8.40;34.46;94502.44;4967937;28;20053;-75
2022/03/24 07:22:13;;;;;;;42.53;16.98;;;;;;;8.26;34.64;94528.03;4968010;28;20042;-75
2022/03/24 07:24:39;;;;;;;28.27;17.10;;;;;;;8.10;34.59;94494.78;4966568;28;20034;-74
2022/03/24 07:27:05;;;;;;;33.92;19.80;;;;;;;8.00;34.12;94524.03;4968818;28;20046;-74
2022/03/24 07:29:31;;;;;;;31.10;16.30;;;;;;;8.00;34.68;94492.25;4967566;28;20043;-72
2022/03/24 07:31:57;;;;;;;29.10;15.73;;;;;;;8.29;34.03;94529.31;4968483;28;20041;-72
2022/03/24 07:34:23;;;;;;;30.48;18.20;;;;;;;7.95;34.90;94524.06;4966974;28;20509;-74
2022/03/24 07:36:48;;;;;;;32.83;16.75;;;;;;;8.26;34.81;94509.47;4963931;28;20042;-73
2022/03/24 07:39:15;;;;;;;40.83;17.60;;;;;;;8.74;34.08;94504.16;4962638;28;20050;-73
2022/03/24 07:41:40;;;;;;;30.80;16.92;;;;;;;8.42;34.24;94521.47;4965137;28;20043;-72
2022/03/24 07:44:06;;;;;;;35.22;16.60;;;;;;;8.65;34.39;94524.41;4962110;28;20041;-75
2022/03/24 07:46:32;;;;;;;29.58;16.60;;;;;;;8.78;34.10;94498.00;4967869;28;20084;-76
2022/03/24 07:48:58;;;;;;;148.40;51.63;;;;;;;8.51;33.55;94525.06;4996999;28;20533;-73
2022/03/24 07:51:23;;;;;;;46.38;23.30;;;;;;;8.67;33.11;94496.53;4969280;28;20039;-75
2022/03/24 07:53:48;;;;;;;39.53;18.17;;;;;;;9.02;33.31;94511.19;4965526;28;20413;-75
2022/03/24 07:56:24;;;;;;;37.63;17.63;;;;;;;8.63;33.72;94478.81;4969118;28;20348;-74
2022/03/24 07:58:51;;;;;;;31.67;16.55;;;;;;;8.31;34.39;94488.22;4981388;28;20038;-74
2022/03/24 08:01:27;;;;;;;31.42;15.48;;;;;;;9.02;33.96;94517.31;4958150;28;20026;-74
2022/03/24 08:03:53;;;;;;;30.27;16.55;;;;;;;9.11;33.13;94498.91;4968747;28;20643;-75
2022/03/24 08:06:20;;;;;;;47.88;21.20;;;;;;;9.35;33.01;94512.88;4966900;28;20070;-75
2022/03/24 08:08:46;;;;;;;39.45;17.08;;;;;;;9.23;32.54;94485.22;4973357;28;20165;-73
2022/03/24 08:11:11;;;;;;;37.50;16.67;;;;;;;9.03;33.26;94496.88;4978790;28;20040;-75
2022/03/24 08:13:37;;;;;;;35.22;15.23;;;;;;;9.59;33.06;94506.69;4964529;28;20066;-74
2022/03/24 08:16:03;;;;;;;31.52;16.75;;;;;;;9.53;32.67;94489.28;4968446;28;20137;-75
2022/03/24 08:18:28;;;;;;;32.25;17.30;;;;;;;9.61;32.53;94499.22;4966157;28;20039;-75
2022/03/24 08:20:54;;;;;;;31.40;17.63;;;;;;;9.74;32.24;94503.78;4970083;28;20042;-74
2022/03/24 08:23:20;;;;;;;32.42;16.55;;;;;;;9.80;32.40;94503.44;4969059;28;20548;-75
2022/03/24 08:25:46;;;;;;;39.60;16.55;;;;;;;9.78;32.22;94499.50;4971719;28;20163;-76
2022/03/24 08:28:12;;;;;;;24.92;15.38;;;;;;;9.85;32.05;94486.59;4970338;28;20035;-75
2022/03/24 08:30:42;;;;;;;29.92;13.00;;;;;;;9.76;32.41;94469.75;4973548;28;20039;-74
2022/03/24 08:33:11;;;;;;;29.10;13.45;;;;;;;10.04;31.95;94475.91;4970057;28;20038;-75
2022/03/24 08:35:38;;;;;;;31.17;13.55;;;;;;;10.19;32.23;94489.72;4967594;28;20121;-74
2022/03/24 08:38:04;;;;;;;19.77;9.85;;;;;;;10.45;31.30;94476.78;4968062;28;20584;-75
2022/03/24 08:40:29;;;;;;;17.40;10.13;;;;;;;10.40;31.14;94478.75;4962662;28;20477;-73
2022/03/24 08:42:55;;;;;;;29.00;9.70;;;;;;;10.61;31.25;94478.03;4968652;28;20417;-73
2022/03/24 08:45:21;;;;;;;20.20;10.32;;;;;;;10.62;31.23;94476.16;4972568;28;20038;-72
2022/03/24 08:47:46;;;;;;;18.15;9.60;;;;;;;10.70;31.94;94478.16;4966643;28;20694;-72
2022/03/24 08:50:12;;;;;;;14.45;7.40;;;;;;;10.64;30.69;94482.00;4967954;28;20552;-75
2022/03/24 08:52:38;;;;;;;12.77;7.22;;;;;;;10.60;31.24;94451.75;4966472;28;20022;-74
2022/03/24 08:55:06;;;;;;;17.10;6.90;;;;;;;10.92;29.77;94467.56;4968377;28;20566;-74
2022/03/24 08:57:32;;;;;;;14.65;6.65;;;;;;;11.11;30.19;94473.53;4980338;28;20582;-75
2022/03/24 09:00:00;;;;;;;8.07;4.82;;;;;;;10.99;30.13;94465.28;4971433;28;20363;-75
2022/03/24 09:02:27;;;;;;;13.63;7.03;;;;;;;11.01;29.90;94449.78;4972735;28;20051;-73
2022/03/24 09:04:52;;;;;;;12.32;5.75;;;;;;;11.15;29.33;94458.53;4969148;28;20042;-75
2022/03/24 09:07:18;;;;;;;10.32;5.57;;;;;;;11.29;28.79;94457.72;4968583;28;20406;-75
2022/03/24 09:09:44;;;;;;;9.25;5.15;;;;;;;11.20;28.75;94464.84;5001311;28;20039;-75
2022/03/24 09:12:09;;;;;;;9.93;5.13;;;;;;;10.98;28.38;94410.47;4966810;28;20089;-75
2022/03/24 09:14:37;;;;;;;66.38;21.67;;;;;;;11.40;27.79;94464.34;4963890;28;20674;-75
2022/03/24 09:17:02;;;;;;;11.15;6.30;;;;;;;11.24;28.17;94412.56;4965051;28;20049;-75
2022/03/24 09:19:29;;;;;;;17.98;7.32;;;;;;;11.43;27.47;94455.78;4971631;28;20424;-74
2022/03/24 09:21:54;;;;;;;10.38;5.97;;;;;;;11.31;27.26;94439.53;4968002;28;20038;-75
2022/03/24 09:24:19;;;;;;;8.27;4.82;;;;;;;11.58;27.55;94468.78;4970097;28;20039;-74
2022/03/24 09:26:45;;;;;;;13.20;5.95;;;;;;;11.54;26.81;94441.94;4969953;28;20119;-73
2022/03/24 09:29:11;;;;;;;8.38;6.55;;;;;;;11.71;26.75;94449.25;4964053;28;20567;-74
2022/03/24 09:31:36;;;;;;;11.25;5.45;;;;;;;11.80;26.41;94465.28;4966520;28;20038;-74
2022/03/24 09:34:03;;;;;;;10.77;5.40;;;;;;;11.68;26.51;94444.56;4964687;28;20026;-75
2022/03/24 09:36:29;;;;;;;7.90;5.00;;;;;;;11.84;26.22;94453.72;4968160;28;20496;-75
2022/03/24 09:38:55;;;;;;;13.55;5.65;;;;;;;11.95;26.19;94454.25;4964399;28;20038;-75
2022/03/24 09:41:21;;;;;;;9.93;5.07;;;;;;;11.89;26.03;94439.47;4966378;28;20620;-75
2022/03/24 09:43:47;;;;;;;10.43;4.95;;;;;;;11.91;25.53;94438.09;4968450;28;20046;-74
2022/03/24 09:46:14;;;;;;;13.60;5.38;;;;;;;11.93;25.79;94433.22;4968609;28;20099;-75
2022/03/24 09:48:42;;;;;;;9.18;4.97;;;;;;;12.05;25.22;94435.34;4971548;28;20053;-74
2022/03/24 09:51:09;;;;;;;8.48;5.10;;;;;;;12.01;25.17;94432.50;4972231;28;20046;-73
2022/03/24 09:53:39;;;;;;;8.90;4.28;;;;;;;11.80;24.79;94378.13;4967678;28;20050;-75
2022/03/24 09:56:06;;;;;;;8.35;5.43;;;;;;;12.23;25.03;94422.84;4967981;28;20509;-75
2022/03/24 09:58:31;;;;;;;9.27;5.15;;;;;;;12.29;24.93;94421.63;4967864;28;20034;-75
2022/03/24 10:00:56;;;;;;;8.98;4.70;;;;;;;12.53;23.92;94431.91;4968304;28;20155;-73
2022/03/24 10:03:23;;;;;;;15.65;7.90;;;;;;;12.51;24.69;94418.09;4964176;28;20450;-75
2022/03/24 10:06:02;;;;;;;9.10;5.57;;;;;;;12.66;25.51;94415.81;4967383;28;20089;-75
2022/03/24 10:08:29;;;;;;;11.45;6.13;;;;;;;12.63;24.27;94389.72;4965611;28;20093;-76
2022/03/24 10:11:03;;;;;;;9.43;4.82;;;;;;;12.77;24.43;94395.72;4966986;28;20509;-73
2022/03/24 10:13:53;;;;;;;12.53;5.83;;;;;;;12.91;23.79;94411.59;4963944;28;20041;-75
2022/03/24 10:16:41;;;;;;;10.77;4.93;;;;;;;12.89;22.07;94416.47;4970544;28;20445;-75
2022/03/24 10:19:08;;;;;;;5.88;4.53;;;;;;;12.91;22.67;94416.16;4984233;28;20052;-75
2022/03/24 10:21:50;;;;;;;9.02;5.05;;;;;;;12.89;22.62;94397.78;4966373;28;20134;-75
2022/03/24 10:24:21;;;;;;;9.60;4.72;;;;;;;12.86;22.21;94388.50;4981877;28;20149;-75
2022/03/24 10:26:50;;;;;;;10.55;5.45;;;;;;;12.98;22.53;94395.13;4968003;28;20069;-73
2022/03/24 10:29:22;;;;;;;12.27;4.88;;;;;;;13.21;22.84;94393.84;4966258;28;20042;-76
2022/03/24 10:31:56;;;;;;;7.97;4.85;;;;;;;13.04;22.59;94372.50;4968279;28;20612;-74
2022/03/24 10:34:32;;;;;;;6.50;4.53;;;;;;;13.15;21.74;94373.75;4965757;28;20041;-73
2022/03/24 10:37:03;;;;;;;10.43;4.50;;;;;;;13.20;21.96;94376.28;4958675;28;20637;-73
2022/03/24 10:39:29;;;;;;;7.85;4.32;;;;;;;13.32;21.69;94384.44;4970621;28;20112;-74
2022/03/24 10:42:14;;;;;;;9.30;6.15;;;;;;;13.30;21.65;94379.38;4970124;28;20553;-73
2022/03/24 10:45:20;;;;;;;9.98;5.05;;;;;;;13.47;21.91;94375.91;4964639;28;20653;-73
2022/03/24 10:47:56;;;;;;;12.75;5.70;;;;;;;13.28;21.63;94380.81;4965173;28;20501;-74
2022/03/24 10:50:33;;;;;;;7.20;4.85;;;;;;;13.06;22.32;94311.53;4965504;28;20090;-73
2022/03/24 10:53:04;;;;;;;7.00;4.22;;;;;;;13.52;22.09;94362.41;4970874;28;20035;-75
2022/03/24 10:55:44;;;;;;;8.40;5.20;;;;;;;13.46;22.60;94338.81;4967627;28;20046;-74
2022/03/24 10:58:24;;;;;;;6.22;3.92;;;;;;;13.92;22.18;94364.84;4966955;28;20029;-73
2022/03/24 11:00:57;;;;;;;8.88;4.55;;;;;;;13.90;22.17;94342.97;4972336;28;20050;-75
2022/03/24 11:03:22;;;;;;;12.60;4.38;;;;;;;14.14;21.33;94356.53;4966864;28;20081;-75
2022/03/24 11:05:48;;;;;;;9.88;5.05;;;;;;;14.09;21.32;94338.78;4997174;28;20597;-74
2022/03/24 11:08:18;;;;;;;10.85;4.63;;;;;;;14.24;20.98;94345.47;4966029;28;20043;-76
2022/03/24 11:10:48;;;;;;;11.02;5.03;;;;;;;14.18;21.17;94347.56;4969857;28;21052;-75
2022/03/24 11:13:27;;;;;;;7.45;4.45;;;;;;;14.15;21.27;94307.28;4967523;28;20173;-76
2022/03/24 11:15:53;;;;;;;8.85;5.15;;;;;;;14.31;21.20;94328.94;4970139;28;20038;-75
2022/03/24 11:18:21;;;;;;;10.95;5.22;;;;;;;14.20;21.55;94320.50;4960923;28;21610;-74
2022/03/24 11:20:49;;;;;;;10.60;5.00;;;;;;;14.17;21.53;94323.81;4970698;28;20042;-74
2022/03/24 11:23:23;;;;;;;12.27;6.10;;;;;;;14.45;21.74;94335.63;4968888;28;20038;-75
2022/03/24 11:25:53;;;;;;;14.80;6.10;;;;;;;14.46;21.63;94331.84;4976470;28;20061;-75
2022/03/24 11:28:20;;;;;;;4.22;3.83;;;;;;;14.21;20.95;94278.47;4971727;28;20469;-76
2022/03/24 11:30:46;;;;;;;9.25;4.82;;;;;;;14.31;20.96;94292.25;4967094;28;20043;-72